Time;durP1;ratioP1;P1;durP2;ratioP2;P2;SDS_P1;SDS_P2;PMS_P1;PMS_P2;Temp;Humidity;BMP_temperature;BMP_pressure;BME280_temperature;BME280_humidity;BME280_pressure;Samples;Min_cycle;Max_cycle;Signal;HPM_P1;HPM_P2
2023/03/04 00:01:23;;;;;;;44.38;40.90;;;;;;;-1.95;80.37;98747.84;5052289;28;20052;-77
2023/03/04 00:03:48;;;;;;;42.53;39.40;;;;;;;-1.92;80.43;98757.28;5065643;28;20028;-77
2023/03/04 00:06:13;;;;;;;44.60;41.40;;;;;;;-2.06;79.92;98753.38;5019268;28;20186;-76
2023/03/04 00:08:39;;;;;;;46.20;42.88;;;;;;;-1.99;80.12;98749.13;5066971;28;20025;-75
2023/03/04 00:11:04;;;;;;;46.05;42.65;;;;;;;-1.99;79.52;98756.22;5062559;28;20471;-76
2023/03/04 00:13:30;;;;;;;42.78;39.67;;;;;;;-2.14;79.84;98748.00;5035077;28;20021;-75
2023/03/04 00:15:55;;;;;;;44.88;41.67;;;;;;;-2.14;80.51;98748.00;5062370;28;20475;-75
2023/03/04 00:18:20;;;;;;;46.22;42.55;;;;;;;-2.11;79.84;98758.25;5058870;28;20458;-75
2023/03/04 00:20:46;;;;;;;45.35;41.92;;;;;;;-2.26;80.68;98757.94;5061190;28;20457;-75
2023/03/04 00:23:12;;;;;;;46.72;43.17;;;;;;;-2.35;81.63;98758.00;5083330;28;20137;-76
2023/03/04 00:25:37;;;;;;;48.78;45.17;;;;;;;-2.39;81.64;98754.03;5035266;28;20040;-76
2023/03/04 00:28:03;;;;;;;49.03;45.33;;;;;;;-2.14;80.75;98764.66;5052972;28;20024;-76
2023/03/04 00:30:28;;;;;;;48.35;44.75;;;;;;;-2.54;82.47;98760.78;5051671;28;20101;-76
2023/03/04 00:32:53;;;;;;;49.53;46.05;;;;;;;-2.27;81.07;98766.03;5049232;28;20373;-76
2023/03/04 00:35:20;;;;;;;50.70;46.92;;;;;;;-2.46;82.14;98764.34;5047526;28;20028;-76
2023/03/04 00:37:45;;;;;;;49.53;45.65;;;;;;;-2.56;83.19;98753.03;5048368;28;20387;-76
2023/03/04 00:40:11;;;;;;;49.55;46.05;;;;;;;-2.22;80.83;98776.97;5051647;28;20175;-75
2023/03/04 00:42:36;;;;;;;46.58;43.15;;;;;;;-2.35;80.95;98752.75;5032105;28;20025;-74
2023/03/04 00:45:02;;;;;;;47.03;43.65;;;;;;;-2.29;80.99;98765.34;5047340;28;20032;-75
2023/03/04 00:47:27;;;;;;;46.47;42.95;;;;;;;-2.32;81.03;98749.81;5058008;28;20027;-74
2023/03/04 00:49:53;;;;;;;45.50;42.00;;;;;;;-2.28;79.47;98767.81;5065105;28;20697;-75
2023/03/04 00:52:18;;;;;;;35.88;32.67;;;;;;;-2.28;79.49;98761.72;5040628;28;20020;-75
2023/03/04 00:54:44;;;;;;;38.53;35.00;;;;;;;-2.50;79.81;98756.88;5050957;28;20679;-75
2023/03/04 00:57:09;;;;;;;42.53;39.30;;;;;;;-2.48;79.83;98765.47;5054835;28;20069;-75
2023/03/04 00:59:34;;;;;;;40.03;36.83;;;;;;;-2.32;79.49;98766.47;5034613;28;20040;-75
2023/03/04 01:02:00;;;;;;;37.85;34.55;;;;;;;-2.37;79.57;98766.09;5064338;28;20611;-75
2023/03/04 01:04:25;;;;;;;44.17;40.78;;;;;;;-2.33;79.46;98758.69;5049570;28;20025;-73
2023/03/04 01:06:51;;;;;;;40.75;37.55;;;;;;;-2.53;79.72;98758.00;5067633;28;20024;-73
2023/03/04 01:09:16;;;;;;;43.17;39.95;;;;;;;-2.47;81.29;98759.19;5044590;28;20132;-73
2023/03/04 01:11:41;;;;;;;43.92;40.72;;;;;;;-2.47;80.65;98756.56;5040696;28;20119;-73
2023/03/04 01:14:07;;;;;;;43.85;40.40;;;;;;;-2.31;79.75;98762.03;5050692;28;20055;-73
2023/03/04 01:16:32;;;;;;;38.75;35.22;;;;;;;-2.35;79.68;98765.91;5037219;28;20169;-73
2023/03/04 01:18:58;;;;;;;44.58;41.20;;;;;;;-2.52;80.94;98748.28;5034254;28;20048;-74
2023/03/04 01:21:23;;;;;;;39.13;35.53;;;;;;;-2.45;80.10;98755.44;5054034;28;20031;-74
2023/03/04 01:23:48;;;;;;;43.17;39.63;;;;;;;-2.45;79.41;98749.34;5033918;28;20115;-74
2023/03/04 01:26:14;;;;;;;43.70;40.42;;;;;;;-2.47;79.62;98753.94;5049852;28;20028;-73
2023/03/04 01:28:39;;;;;;;45.17;41.67;;;;;;;-2.48;79.90;98744.38;5034121;28;20408;-74
2023/03/04 01:31:05;;;;;;;41.70;38.40;;;;;;;-2.45;79.52;98750.16;5067542;28;20443;-74
2023/03/04 01:33:31;;;;;;;42.95;39.65;;;;;;;-2.42;79.12;98749.88;5047172;28;20090;-75
2023/03/04 01:35:57;;;;;;;40.65;36.83;;;;;;;-2.43;81.00;98747.41;5057318;28;20057;-75
2023/03/04 01:38:23;;;;;;;52.00;47.85;;;;;;;-2.42;81.04;98743.75;5082361;28;20029;-75
2023/03/04 01:40:49;;;;;;;51.58;47.50;;;;;;;-2.44;81.39;98737.81;5036678;28;20021;-75
2023/03/04 01:43:19;;;;;;;54.60;50.53;;;;;;;-2.14;80.65;98742.72;5060708;28;20041;-75
2023/03/04 01:45:45;;;;;;;52.50;48.38;;;;;;;-2.11;80.83;98726.59;5069473;28;20024;-76
2023/03/04 01:48:13;;;;;;;55.13;50.92;;;;;;;-2.05;81.92;98730.47;5044167;28;20070;-76
2023/03/04 01:50:39;;;;;;;52.30;48.30;;;;;;;-2.30;82.95;98724.13;5036470;28;20537;-76
2023/03/04 01:53:05;;;;;;;53.83;49.70;;;;;;;-2.21;82.34;98720.56;5033344;28;20037;-76
2023/03/04 01:55:30;;;;;;;53.55;49.45;;;;;;;-2.16;81.23;98724.41;5046530;28;20036;-75
2023/03/04 01:57:56;;;;;;;54.42;50.08;;;;;;;-2.16;81.80;98711.22;5050292;28;20119;-75
2023/03/04 02:00:29;;;;;;;49.13;45.40;;;;;;;-1.90;81.19;98713.91;5047059;28;20043;-77
2023/03/04 02:03:06;;;;;;;47.75;43.95;;;;;;;-1.77;80.62;98714.34;5043838;28;20041;-76
2023/03/04 02:05:31;;;;;;;47.97;44.15;;;;;;;-1.82;80.68;98705.25;5048621;28;20173;-76
2023/03/04 02:07:58;;;;;;;49.70;45.80;;;;;;;-1.88;80.83;98690.84;5058539;28;20025;-75
2023/03/04 02:10:24;;;;;;;52.15;47.90;;;;;;;-2.01;81.29;98700.97;5049906;28;20047;-76
2023/03/04 02:12:50;;;;;;;51.67;47.65;;;;;;;-1.91;81.48;98696.41;5044933;28;20115;-76
2023/03/04 02:15:16;;;;;;;48.25;44.30;;;;;;;-1.80;80.81;98692.72;5048509;28;20033;-76
2023/03/04 02:17:41;;;;;;;55.55;51.20;;;;;;;-1.84;81.66;98692.19;5053182;28;20161;-76
2023/03/04 02:20:17;;;;;;;51.38;47.35;;;;;;;-1.68;81.14;98687.00;5033331;28;20037;-76
2023/03/04 02:22:50;;;;;;;53.53;49.50;;;;;;;-1.87;81.51;98687.22;5043690;28;20617;-76
2023/03/04 02:25:21;;;;;;;53.00;48.60;;;;;;;-1.91;82.24;98695.59;5061965;28;20480;-76
2023/03/04 02:27:47;;;;;;;51.00;46.95;;;;;;;-1.62;81.39;98686.41;5046972;28;20072;-74
2023/03/04 02:30:15;;;;;;;51.83;47.72;;;;;;;-1.54;81.28;98686.44;5041454;28;20025;-75
2023/03/04 02:32:40;;;;;;;49.22;45.42;;;;;;;-1.41;80.05;98689.50;5057521;28;20029;-75
2023/03/04 02:35:14;;;;;;;51.33;47.30;;;;;;;-1.32;80.16;98679.78;5032946;28;20476;-75
2023/03/04 02:37:41;;;;;;;49.23;45.47;;;;;;;-1.43;80.20;98670.34;5036645;28;20673;-77
2023/03/04 02:40:22;;;;;;;49.72;45.70;;;;;;;-1.35;80.50;98679.28;5051295;28;20025;-76
2023/03/04 02:42:47;;;;;;;48.75;44.75;;;;;;;-1.43;80.53;98678.25;5066097;28;20499;-74
2023/03/04 02:45:33;;;;;;;48.55;44.75;;;;;;;-1.28;80.81;98678.47;5041550;28;20028;-77
2023/03/04 02:47:59;;;;;;;51.28;47.50;;;;;;;-1.24;79.81;98668.44;5037497;28;20033;-75
2023/03/04 02:50:25;;;;;;;48.75;44.97;;;;;;;-1.32;80.65;98668.38;5034169;28;20162;-77
2023/03/04 02:52:50;;;;;;;49.75;45.65;;;;;;;-1.23;79.69;98670.91;5062433;28;20083;-76
2023/03/04 02:55:17;;;;;;;51.20;47.28;;;;;;;-1.32;80.82;98671.03;5050816;28;20024;-76
2023/03/04 02:57:43;;;;;;;48.25;44.55;;;;;;;-1.19;80.08;98671.44;5028092;28;20036;-76
2023/03/04 03:00:10;;;;;;;48.63;44.58;;;;;;;-1.19;78.98;98671.44;5037617;28;20025;-76
2023/03/04 03:02:35;;;;;;;48.10;44.42;;;;;;;-1.17;79.21;98658.88;5036687;28;20114;-76
2023/03/04 03:05:00;;;;;;;45.47;41.97;;;;;;;-1.18;79.93;98667.78;5071049;28;20025;-77
2023/03/04 03:07:27;;;;;;;45.95;42.25;;;;;;;-1.27;79.35;98635.25;5059406;28;20492;-77
2023/03/04 03:09:52;;;;;;;47.35;43.72;;;;;;;-1.14;80.05;98653.28;5043653;28;20103;-78
2023/03/04 03:12:18;;;;;;;44.38;40.67;;;;;;;-1.15;79.86;98646.34;5053176;28;20064;-77
2023/03/04 03:14:43;;;;;;;45.63;41.92;;;;;;;-1.01;79.28;98658.94;5036495;28;20433;-76
2023/03/04 03:17:10;;;;;;;46.60;42.80;;;;;;;-0.97;79.48;98660.28;5047091;28;20487;-76
2023/03/04 03:19:36;;;;;;;44.95;41.53;;;;;;;-0.91;79.08;98649.06;5079700;28;20074;-76
2023/03/04 03:22:04;;;;;;;42.45;38.90;;;;;;;-0.88;78.95;98646.09;5053397;28;20035;-76
2023/03/04 03:24:30;;;;;;;44.38;40.67;;;;;;;-1.10;79.42;98649.34;5036320;28;20108;-76
2023/03/04 03:26:55;;;;;;;41.60;37.97;;;;;;;-1.17;79.78;98654.44;5026069;28;20033;-76
2023/03/04 03:29:21;;;;;;;42.42;38.83;;;;;;;-1.10;79.77;98655.47;5038591;28;20017;-75
2023/03/04 03:31:46;;;;;;;42.95;39.50;;;;;;;-1.16;80.24;98655.25;5080607;28;20035;-76
2023/03/04 03:34:11;;;;;;;46.72;42.97;;;;;;;-1.10;79.89;98649.34;5042534;28;20464;-77
2023/03/04 03:36:37;;;;;;;45.35;41.60;;;;;;;-1.23;80.76;98659.50;5064236;28;20032;-77
2023/03/04 03:39:02;;;;;;;49.50;45.33;;;;;;;-1.10;80.51;98649.34;5059332;28;20032;-76
2023/03/04 03:41:27;;;;;;;49.35;45.40;;;;;;;-1.12;80.59;98661.88;5064954;28;20111;-76
2023/03/04 03:43:53;;;;;;;50.42;46.30;;;;;;;-1.09;80.55;98653.63;5049162;28;20028;-75
2023/03/04 03:46:18;;;;;;;50.13;46.22;;;;;;;-1.19;80.84;98652.94;5043486;28;20086;-75
2023/03/04 03:48:44;;;;;;;49.05;45.15;;;;;;;-1.02;80.71;98649.34;5059359;28;20369;-75
2023/03/04 03:51:09;;;;;;;49.67;45.58;;;;;;;-1.11;81.19;98653.78;5052543;28;20044;-76
2023/03/04 03:53:34;;;;;;;53.40;49.05;;;;;;;-1.12;81.03;98648.69;5053218;28;20032;-76
2023/03/04 03:56:00;;;;;;;49.67;45.75;;;;;;;-1.14;80.85;98642.69;5052497;28;20032;-75
2023/03/04 03:58:25;;;;;;;53.47;49.03;;;;;;;-1.07;80.86;98654.28;5046712;28;20111;-75
2023/03/04 04:00:51;;;;;;;54.25;49.40;;;;;;;-1.12;81.21;98653.97;5065206;28;20032;-76
2023/03/04 04:03:17;;;;;;;59.45;54.55;;;;;;;-1.18;82.00;98662.50;5065347;28;20685;-75
2023/03/04 04:05:42;;;;;;;59.60;54.50;;;;;;;-1.35;82.74;98660.81;5042246;28;20032;-75
2023/03/04 04:08:13;;;;;;;58.00;53.10;;;;;;;-1.10;82.04;98644.06;5058905;28;20471;-73
2023/03/04 04:10:39;;;;;;;53.88;49.67;;;;;;;-1.08;81.90;98652.66;5052167;28;20623;-74
2023/03/04 04:13:05;;;;;;;53.50;49.20;;;;;;;-1.28;82.58;98654.69;5048670;28;20033;-74
2023/03/04 04:15:30;;;;;;;52.20;48.00;;;;;;;-1.23;82.68;98659.50;5052063;28;20480;-74
2023/03/04 04:17:56;;;;;;;53.58;49.22;;;;;;;-1.31;82.81;98646.28;5070565;28;20024;-74
2023/03/04 04:20:22;;;;;;;52.20;47.90;;;;;;;-0.90;81.66;98656.00;5059908;28;20126;-74
2023/03/04 04:22:47;;;;;;;53.80;49.55;;;;;;;-1.07;82.04;98649.84;5058566;28;20025;-75
2023/03/04 04:25:13;;;;;;;58.78;53.78;;;;;;;-0.94;81.79;98644.94;5063849;28;20029;-75
2023/03/04 04:27:38;;;;;;;52.80;48.45;;;;;;;-0.72;80.32;98648.78;5048649;28;20029;-75
2023/03/04 04:30:04;;;;;;;51.35;47.20;;;;;;;-0.71;79.93;98650.44;5026224;28;20142;-76
2023/03/04 04:32:30;;;;;;;44.92;41.13;;;;;;;-0.61;79.34;98651.13;5054530;28;20059;-73
2023/03/04 04:34:55;;;;;;;46.33;42.60;;;;;;;-0.57;79.61;98656.91;5064116;28;20049;-73
2023/03/04 04:37:21;;;;;;;52.00;47.45;;;;;;;-0.65;79.47;98652.41;5049350;28;20024;-73
2023/03/04 04:39:46;;;;;;;48.83;44.67;;;;;;;-0.71;80.11;98661.00;5026779;28;20506;-75
2023/03/04 04:42:11;;;;;;;52.65;48.25;;;;;;;-0.64;80.32;98661.19;5036817;28;20071;-76
2023/03/04 04:44:37;;;;;;;48.95;44.92;;;;;;;-0.66;80.16;98663.16;5034767;28;20403;-75
2023/03/04 04:47:05;;;;;;;49.70;45.38;;;;;;;-0.81;81.10;98666.44;5019102;28;20021;-75
2023/03/04 04:49:31;;;;;;;50.05;45.67;;;;;;;-0.59;80.29;98657.06;5051470;28;20060;-74
2023/03/04 04:51:56;;;;;;;47.08;43.17;;;;;;;-0.52;80.08;98655.44;5046071;28;20599;-74
2023/03/04 04:54:21;;;;;;;50.22;46.17;;;;;;;-0.77;81.41;98653.75;5051140;28;20127;-75
2023/03/04 04:56:47;;;;;;;50.95;46.65;;;;;;;-0.82;81.62;98663.97;5044911;28;20025;-74
2023/03/04 04:59:12;;;;;;;50.80;46.60;;;;;;;-1.03;82.24;98651.19;5064151;28;20381;-76
2023/03/04 05:01:38;;;;;;;49.63;45.53;;;;;;;-0.82;82.59;98653.41;5065100;28;20103;-75
2023/03/04 05:04:03;;;;;;;52.97;48.78;;;;;;;-0.87;82.45;98655.69;5064408;28;20036;-76
2023/03/04 05:06:29;;;;;;;53.67;49.30;;;;;;;-0.91;82.53;98649.88;5054722;28;20029;-76
2023/03/04 05:08:54;;;;;;;58.88;53.88;;;;;;;-0.89;82.15;98647.09;5041603;28;20115;-76
2023/03/04 05:11:20;;;;;;;56.15;51.60;;;;;;;-0.92;82.35;98636.84;5052974;28;20025;-75
2023/03/04 05:13:46;;;;;;;55.08;50.78;;;;;;;-0.85;82.41;98651.06;5072473;28;20055;-75
2023/03/04 05:16:12;;;;;;;52.47;47.78;;;;;;;-0.78;82.70;98652.06;5057127;28;20519;-75
2023/03/04 05:18:38;;;;;;;51.97;47.70;;;;;;;-0.85;82.70;98643.13;5050504;28;20124;-74
2023/03/04 05:21:04;;;;;;;55.20;50.65;;;;;;;-0.90;82.73;98653.34;5032646;28;20024;-77
2023/03/04 05:23:36;;;;;;;57.20;52.80;;;;;;;-0.85;82.74;98653.72;5021959;28;20124;-77
2023/03/04 05:26:02;;;;;;;55.53;50.95;;;;;;;-0.86;82.47;98660.81;5067550;28;20036;-76
2023/03/04 05:28:28;;;;;;;53.75;49.38;;;;;;;-0.77;82.61;98651.09;5063761;28;20028;-76
2023/03/04 05:30:54;;;;;;;56.05;51.60;;;;;;;-0.74;82.18;98656.03;5064793;28;20040;-76
2023/03/04 05:33:19;;;;;;;52.10;47.80;;;;;;;-0.84;82.81;98658.03;5058961;28;20074;-76
2023/03/04 05:35:47;;;;;;;53.92;49.50;;;;;;;-0.84;82.81;98658.03;5052244;28;20051;-76
2023/03/04 05:38:15;;;;;;;53.10;48.58;;;;;;;-0.58;81.61;98648.13;5030508;28;20021;-75
2023/03/04 05:40:41;;;;;;;52.00;47.70;;;;;;;-0.79;83.62;98658.34;5036045;28;20033;-75
2023/03/04 05:43:07;;;;;;;57.22;52.58;;;;;;;-0.80;83.18;98662.81;5033715;28;20021;-74
2023/03/04 05:45:33;;;;;;;60.70;55.25;;;;;;;-0.89;83.12;98652.38;5052193;28;20112;-76
2023/03/04 05:47:58;;;;;;;108.55;97.22;;;;;;;-0.65;81.86;98648.97;5047080;28;20120;-76
2023/03/04 05:50:24;;;;;;;104.97;94.03;;;;;;;-0.68;82.89;98646.66;5030726;28;20070;-77
2023/03/04 05:53:35;;;;;;;216.23;174.32;;;;;;;-0.77;81.97;98611.44;5086807;23;20043;-77
2023/03/04 05:56:22;;;;;;;171.90;134.10;;;;;;;-0.61;81.84;98661.72;5003344;28;20096;-75
2023/03/04 05:58:48;;;;;;;171.52;139.13;;;;;;;-0.69;81.93;98616.72;4977553;28;20405;-75
2023/03/04 06:01:13;;;;;;;124.38;107.88;;;;;;;-0.43;81.85;98662.38;5043391;28;20036;-75
2023/03/04 06:03:39;;;;;;;93.20;83.10;;;;;;;-0.29;81.32;98667.03;5054826;28;20036;-76
2023/03/04 06:06:05;;;;;;;86.15;77.18;;;;;;;-0.45;81.91;98671.47;5068080;28;20135;-76
2023/03/04 06:08:31;;;;;;;78.00;69.95;;;;;;;-0.71;82.16;98658.38;5070597;28;20123;-77
2023/03/04 06:10:57;;;;;;;68.97;62.67;;;;;;;-0.51;82.19;98672.94;5052251;28;20021;-75
2023/03/04 06:13:23;;;;;;;59.47;54.22;;;;;;;-0.52;82.53;98687.19;5063409;28;20123;-75
2023/03/04 06:15:54;;;;;;;62.45;56.95;;;;;;;-0.34;82.13;98685.22;5053204;28;20104;-75
2023/03/04 06:18:19;;;;;;;60.28;54.97;;;;;;;-0.32;81.77;98683.22;5070032;28;20476;-76
2023/03/04 06:20:44;;;;;;;61.10;55.53;;;;;;;-0.48;82.11;98685.00;5059115;28;20158;-75
2023/03/04 06:23:10;;;;;;;60.30;54.83;;;;;;;-0.28;81.39;98679.25;5067102;28;20114;-74
2023/03/04 06:25:35;;;;;;;57.35;52.45;;;;;;;-0.12;80.29;98689.84;5070054;28;20012;-75
2023/03/04 06:28:01;;;;;;;56.88;51.38;;;;;;;-0.07;80.44;98687.53;5067961;28;20032;-75
2023/03/04 06:30:26;;;;;;;50.28;45.80;;;;;;;-0.18;80.92;98693.16;5056367;28;20108;-75
2023/03/04 06:32:51;;;;;;;58.15;52.95;;;;;;;-0.31;81.52;98700.78;5039801;28;20040;-75
2023/03/04 06:35:17;;;;;;;56.88;51.58;;;;;;;-0.32;82.27;98699.09;5083176;28;20029;-75
2023/03/04 06:37:42;;;;;;;56.88;51.80;;;;;;;-0.48;83.97;98703.53;5059779;28;20032;-75
2023/03/04 06:40:09;;;;;;;56.90;52.05;;;;;;;-0.28;82.85;98705.72;5056457;28;20617;-75
2023/03/04 06:42:35;;;;;;;58.70;53.63;;;;;;;-0.08;81.86;98690.34;5056912;28;20032;-73
2023/03/04 06:45:00;;;;;;;65.47;59.67;;;;;;;-0.28;82.15;98703.06;5076429;28;20491;-75
2023/03/04 06:47:26;;;;;;;66.75;60.45;;;;;;;-0.27;82.71;98702.09;5076456;28;20042;-75
2023/03/04 06:49:52;;;;;;;86.55;78.45;;;;;;;-0.25;82.69;98700.09;5066391;28;20025;-75
2023/03/04 06:52:17;;;;;;;92.47;83.53;;;;;;;-0.07;82.35;98698.13;5062642;28;20028;-75
2023/03/04 06:54:43;;;;;;;75.05;68.40;;;;;;;-0.06;81.89;98705.09;5066446;28;20025;-75
2023/03/04 06:57:08;;;;;;;75.65;69.22;;;;;;;-0.11;82.55;98691.50;5068831;28;20043;-75
2023/03/04 06:59:34;;;;;;;71.22;64.82;;;;;;;-0.09;82.31;98700.09;5056250;28;20120;-75
2023/03/04 07:01:59;;;;;;;75.50;68.85;;;;;;;0.11;82.42;98710.38;5073912;28;20039;-75
2023/03/04 07:04:24;;;;;;;74.60;67.55;;;;;;;0.07;81.79;98698.47;5065431;28;20103;-75
2023/03/04 07:06:50;;;;;;;68.03;61.75;;;;;;;0.10;81.72;98708.72;5075588;28;20044;-75
2023/03/04 07:09:16;;;;;;;63.47;57.85;;;;;;;0.01;82.22;98705.25;5076204;28;20020;-75
2023/03/04 07:11:42;;;;;;;61.55;55.95;;;;;;;0.02;82.69;98711.38;5075855;28;20024;-75
2023/03/04 07:14:07;;;;;;;61.25;55.90;;;;;;;0.05;82.90;98695.97;5085147;28;20384;-75
2023/03/04 07:16:32;;;;;;;62.10;56.45;;;;;;;0.10;82.38;98706.91;5079470;28;20029;-75
2023/03/04 07:18:58;;;;;;;59.90;54.47;;;;;;;0.15;82.08;98707.22;5086518;28;20107;-75
2023/03/04 07:21:23;;;;;;;61.58;56.28;;;;;;;0.09;82.04;98707.06;5073295;28;20495;-75
2023/03/04 07:23:48;;;;;;;58.63;53.50;;;;;;;0.23;81.63;98701.09;5068685;28;20107;-75
2023/03/04 07:26:14;;;;;;;58.83;53.45;;;;;;;0.31;81.60;98706.38;5076100;28;20563;-75
2023/03/04 07:28:41;;;;;;;57.05;51.85;;;;;;;0.34;80.76;98717.50;5076076;28;20020;-76
2023/03/04 07:31:09;;;;;;;54.45;49.05;;;;;;;0.19;80.52;98718.34;5058848;28;20125;-76
2023/03/04 07:33:34;;;;;;;57.15;51.75;;;;;;;0.40;80.74;98716.81;5055900;28;20025;-76
2023/03/04 07:36:00;;;;;;;56.95;51.60;;;;;;;0.40;80.88;98726.56;5039275;28;20261;-76
2023/03/04 07:38:25;;;;;;;54.80;49.50;;;;;;;0.19;80.83;98720.97;5077524;28;20459;-75
2023/03/04 07:40:58;;;;;;;57.03;51.72;;;;;;;0.30;81.06;98728.59;5055456;28;20124;-76
2023/03/04 07:43:24;;;;;;;53.40;48.42;;;;;;;0.38;80.57;98728.56;5072574;28;20036;-76
2023/03/04 07:45:49;;;;;;;56.72;51.40;;;;;;;0.42;80.80;98732.56;5052687;28;20384;-76
2023/03/04 07:48:14;;;;;;;55.30;50.10;;;;;;;0.66;79.21;98730.69;5046443;28;20111;-76
2023/03/04 07:50:40;;;;;;;56.47;51.35;;;;;;;0.46;80.91;98725.91;5072657;28;20472;-76
2023/03/04 07:53:05;;;;;;;57.60;52.40;;;;;;;0.46;81.17;98731.22;5068900;28;20144;-77
2023/03/04 07:55:31;;;;;;;57.03;51.70;;;;;;;0.39;80.32;98719.63;5069369;28;20027;-76
2023/03/04 07:57:56;;;;;;;56.65;51.40;;;;;;;0.49;81.31;98730.88;5062715;28;20065;-76
2023/03/04 08:00:22;;;;;;;55.25;50.10;;;;;;;0.65;79.94;98720.25;5055675;28;20020;-76
2023/03/04 08:02:47;;;;;;;55.15;49.97;;;;;;;0.58;81.52;98727.22;5078341;28;20036;-77
2023/03/04 08:05:12;;;;;;;52.42;47.30;;;;;;;0.55;79.20;98722.25;5073362;28;20099;-76
2023/03/04 08:07:38;;;;;;;52.47;47.58;;;;;;;0.58;80.13;98730.69;5044925;28;20055;-77
2023/03/04 08:10:04;;;;;;;54.78;49.42;;;;;;;0.65;80.29;98728.22;5054633;28;20109;-76
2023/03/04 08:12:29;;;;;;;51.35;46.40;;;;;;;0.55;80.08;98719.59;5064705;28;20038;-76
2023/03/04 08:14:54;;;;;;;51.22;46.28;;;;;;;0.68;78.89;98722.56;5059260;28;20494;-76
2023/03/04 08:17:20;;;;;;;51.45;46.53;;;;;;;0.79;79.38;98731.97;5055373;28;20033;-76
2023/03/04 08:19:45;;;;;;;49.30;44.58;;;;;;;0.75;79.72;98718.22;5051880;28;20021;-76
2023/03/04 08:22:11;;;;;;;48.92;44.10;;;;;;;0.72;78.66;98721.25;5044861;28;20565;-76
2023/03/04 08:24:36;;;;;;;48.40;43.75;;;;;;;0.71;79.20;98730.19;5054592;28;20020;-76
2023/03/04 08:27:02;;;;;;;47.58;43.13;;;;;;;0.68;78.86;98720.75;5072002;28;20532;-76
2023/03/04 08:29:27;;;;;;;48.10;43.53;;;;;;;0.72;78.96;98720.41;5072012;28;20143;-76
2023/03/04 08:31:54;;;;;;;44.03;39.53;;;;;;;0.66;78.56;98716.59;5060984;28;20033;-76
2023/03/04 08:34:21;;;;;;;45.40;40.95;;;;;;;0.62;79.39;98723.25;5054844;28;20070;-76
2023/03/04 08:36:47;;;;;;;45.05;40.53;;;;;;;0.74;78.35;98724.53;5071681;28;20039;-76
2023/03/04 08:39:14;;;;;;;42.33;38.10;;;;;;;0.76;78.05;98725.19;5067727;28;20431;-76
2023/03/04 08:41:39;;;;;;;44.38;40.10;;;;;;;0.92;78.72;98727.81;5051452;28;20086;-76
2023/03/04 08:44:07;;;;;;;44.58;40.05;;;;;;;0.91;78.89;98734.09;5050492;28;20032;-76
2023/03/04 08:46:32;;;;;;;43.97;39.38;;;;;;;0.87;77.59;98731.94;5071548;28;20032;-76
2023/03/04 08:48:58;;;;;;;43.28;39.25;;;;;;;0.91;78.31;98726.13;5054123;28;20028;-76
2023/03/04 08:51:23;;;;;;;41.92;37.85;;;;;;;1.12;76.61;98734.34;5081667;28;20044;-76
2023/03/04 08:53:49;;;;;;;41.45;37.05;;;;;;;1.10;77.30;98731.03;5058405;28;20036;-76
2023/03/04 08:56:15;;;;;;;40.42;36.33;;;;;;;1.11;77.71;98739.84;5060916;28;20040;-75
2023/03/04 08:58:41;;;;;;;38.67;34.63;;;;;;;1.05;76.96;98744.00;5037486;28;20029;-78
2023/03/04 09:01:08;;;;;;;40.15;35.92;;;;;;;1.12;76.88;98733.56;5054552;28;20054;-76
2023/03/04 09:03:34;;;;;;;41.28;37.05;;;;;;;1.10;77.56;98740.81;5053975;28;20039;-77
2023/03/04 09:06:01;;;;;;;39.95;35.72;;;;;;;1.05;77.51;98738.69;5051386;28;20017;-76
2023/03/04 09:08:26;;;;;;;38.40;34.30;;;;;;;1.07;76.50;98736.72;5034075;28;20109;-76
2023/03/04 09:10:53;;;;;;;38.38;34.35;;;;;;;1.38;75.88;98740.22;5077304;28;20118;-77
2023/03/04 09:13:18;;;;;;;37.30;33.35;;;;;;;1.37;75.84;98733.28;5053289;28;20388;-76
2023/03/04 09:15:49;;;;;;;37.03;32.40;;;;;;;1.36;75.44;98738.72;5066765;28;20041;-77
2023/03/04 09:18:15;;;;;;;38.83;34.70;;;;;;;1.36;76.21;98728.94;5054181;28;20031;-76
2023/03/04 09:20:40;;;;;;;35.40;31.58;;;;;;;1.39;75.92;98735.75;5050819;28;20025;-76
2023/03/04 09:23:06;;;;;;;37.63;33.03;;;;;;;1.32;75.62;98732.13;5050957;28;20376;-76
2023/03/04 09:25:32;;;;;;;36.88;32.88;;;;;;;1.35;75.26;98735.25;5054485;28;20059;-76
2023/03/04 09:27:57;;;;;;;35.42;31.80;;;;;;;1.47;75.58;98735.69;5037322;28;20058;-75
2023/03/04 09:30:23;;;;;;;35.42;31.25;;;;;;;1.48;75.16;98736.53;5070731;28;20033;-77
2023/03/04 09:32:48;;;;;;;35.80;30.67;;;;;;;1.59;74.83;98729.00;5070352;28;20462;-77
2023/03/04 09:35:13;;;;;;;35.95;30.08;;;;;;;1.67;75.27;98733.44;5033831;28;20028;-76
2023/03/04 09:37:39;;;;;;;34.78;31.05;;;;;;;1.53;75.66;98732.34;5031074;28;20743;-76
2023/03/04 09:40:07;;;;;;;34.53;30.88;;;;;;;1.64;74.85;98736.44;5044468;28;20032;-76
2023/03/04 09:42:50;;;;;;;32.53;29.02;;;;;;;1.59;74.54;98736.16;5071581;28;20028;-76
2023/03/04 09:45:21;;;;;;;34.65;30.40;;;;;;;1.52;75.45;98729.88;5070384;28;20032;-76
2023/03/04 09:47:51;;;;;;;31.30;28.02;;;;;;;1.62;74.01;98735.78;5057528;28;20048;-77
2023/03/04 09:50:19;;;;;;;32.90;29.38;;;;;;;1.67;75.44;98738.75;5051344;28;20499;-75
2023/03/04 09:53:13;;;;;;;32.85;27.80;;;;;;;1.74;73.98;98737.88;5070062;28;20047;-75
2023/03/04 09:55:41;;;;;;;30.63;27.10;;;;;;;1.74;75.27;98734.38;5066951;28;20053;-76
2023/03/04 09:58:16;;;;;;;29.52;26.45;;;;;;;1.67;73.94;98744.88;5046196;28;20016;-76
2023/03/04 10:00:51;;;;;;;30.48;27.10;;;;;;;1.76;74.38;98729.72;5053203;28;20040;-76
2023/03/04 10:03:19;;;;;;;36.05;29.17;;;;;;;1.83;73.63;98717.41;5049878;28;20086;-76
2023/03/04 10:05:53;;;;;;;32.25;26.38;;;;;;;1.97;72.07;98730.75;5079538;28;20040;-77
2023/03/04 10:08:39;;;;;;;33.05;25.88;;;;;;;1.99;73.67;98730.56;5048302;28;20055;-76
2023/03/04 10:11:16;;;;;;;31.02;27.00;;;;;;;1.93;72.98;98728.63;5071489;28;20065;-77
2023/03/04 10:13:43;;;;;;;33.85;26.10;;;;;;;1.96;73.55;98725.63;5053504;28;20040;-76
2023/03/04 10:16:13;;;;;;;29.92;23.25;;;;;;;1.82;72.61;98721.06;5070488;28;20031;-77
2023/03/04 10:19:10;;;;;;;31.42;24.88;;;;;;;1.96;72.92;98722.97;5066066;28;20029;-77
2023/03/04 10:21:38;;;;;;;32.25;22.95;;;;;;;1.84;71.54;98708.44;5021049;28;20086;-77
2023/03/04 10:24:16;;;;;;;26.35;23.42;;;;;;;2.06;72.07;98723.53;5049682;28;20065;-77
2023/03/04 10:26:44;;;;;;;31.05;24.55;;;;;;;1.87;71.84;98719.53;5069818;28;20037;-76
2023/03/04 10:29:16;;;;;;;25.20;21.48;;;;;;;2.10;72.20;98714.22;5063184;28;20056;-76
2023/03/04 10:31:42;;;;;;;29.45;21.60;;;;;;;2.17;71.66;98714.34;5040687;28;20427;-76
2023/03/04 10:34:10;;;;;;;29.55;22.73;;;;;;;2.32;71.35;98724.00;5069591;28;20437;-77
2023/03/04 10:36:46;;;;;;;29.23;22.08;;;;;;;2.18;72.01;98711.50;5033067;28;20028;-77
2023/03/04 10:39:32;;;;;;;29.05;20.88;;;;;;;2.27;71.44;98714.91;5066942;28;20119;-77
2023/03/04 10:42:03;;;;;;;28.42;22.83;;;;;;;2.25;70.76;98715.09;5061340;28;20029;-77
2023/03/04 10:44:30;;;;;;;28.13;23.77;;;;;;;2.38;71.22;98712.63;5052831;28;20048;-76
2023/03/04 10:46:56;;;;;;;24.40;18.85;;;;;;;2.07;71.17;98717.25;5066388;28;20025;-76
2023/03/04 10:49:23;;;;;;;29.15;18.20;;;;;;;2.08;71.13;98722.34;5058147;28;20036;-76
2023/03/04 10:52:03;;;;;;;28.63;20.00;;;;;;;2.22;70.57;98715.44;5076692;28;20024;-76
2023/03/04 10:54:38;;;;;;;26.67;18.52;;;;;;;2.17;70.23;98709.81;5065400;28;20036;-76
2023/03/04 10:57:10;;;;;;;25.77;20.25;;;;;;;2.39;71.23;98713.47;5056063;28;20090;-76
2023/03/04 10:59:43;;;;;;;28.25;19.75;;;;;;;2.38;70.87;98707.31;5033050;28;20041;-76
2023/03/04 11:02:28;;;;;;;25.05;18.80;;;;;;;2.28;70.71;98709.44;5047366;28;20036;-76
2023/03/04 11:04:57;;;;;;;26.77;20.63;;;;;;;2.39;70.33;98703.66;5066155;28;20128;-76
2023/03/04 11:07:26;;;;;;;29.77;22.25;;;;;;;2.53;70.89;98704.69;5049316;28;20045;-76
2023/03/04 11:09:51;;;;;;;27.42;21.13;;;;;;;2.40;70.44;98705.34;5047406;28;20025;-76
2023/03/04 11:12:19;;;;;;;27.42;20.83;;;;;;;2.38;70.28;98696.69;5069388;28;20365;-77
2023/03/04 11:14:50;;;;;;;27.63;20.02;;;;;;;2.45;70.18;98697.63;5064324;28;20059;-76
2023/03/04 11:17:27;;;;;;;23.35;18.23;;;;;;;2.37;69.58;98691.56;5052193;28;20040;-76
2023/03/04 11:20:13;;;;;;;26.65;17.65;;;;;;;2.54;70.17;98696.56;5070384;28;20040;-76